createdAt,value
2023-04-13T00:01:11.780Z,2.65
2023-04-13T00:03:39.715Z,2.30
2023-04-13T00:06:11.204Z,2.33
2023-04-13T00:08:38.910Z,3.05
2023-04-13T00:11:07.814Z,2.47
2023-04-13T00:13:41.272Z,2.22
2023-04-13T00:16:10.588Z,2.30
2023-04-13T00:18:37.753Z,2.35
2023-04-13T00:21:05.018Z,1.73
2023-04-13T00:23:32.195Z,2.38
2023-04-13T00:26:01.871Z,2.15
2023-04-13T00:28:30.289Z,2.00
2023-04-13T00:30:57.542Z,2.03
2023-04-13T00:33:24.713Z,2.60
2023-04-13T00:35:52.504Z,1.85
2023-04-13T00:38:19.577Z,2.05
2023-04-13T00:40:47.226Z,2.17
2023-04-13T00:43:15.055Z,2.30
2023-04-13T00:45:42.160Z,2.28
2023-04-13T00:48:11.078Z,2.17
2023-04-13T00:50:39.041Z,1.92
2023-04-13T00:53:10.602Z,1.98
2023-04-13T00:55:42.303Z,2.30
2023-04-13T00:58:09.792Z,2.13
2023-04-13T01:00:39.500Z,1.90
2023-04-13T01:03:08.203Z,1.88
2023-04-13T01:05:57.981Z,1.88
2023-04-13T01:08:37.003Z,1.70
2023-04-13T01:11:23.253Z,2.20
2023-04-13T01:14:13.262Z,1.40
2023-04-13T01:16:46.466Z,1.67
2023-04-13T01:19:28.476Z,1.98
2023-04-13T01:21:56.345Z,1.80
2023-04-13T01:24:40.696Z,1.85
2023-04-13T01:27:16.767Z,1.75
2023-04-13T01:29:47.065Z,1.70
2023-04-13T01:34:46.160Z,1.50
2023-04-13T01:37:13.726Z,1.63
2023-04-13T01:39:41.314Z,1.52
2023-04-13T01:42:08.486Z,1.60
2023-04-13T01:44:35.759Z,1.23
2023-04-13T01:47:16.546Z,1.52
2023-04-13T01:49:52.640Z,1.83
2023-04-13T01:52:21.105Z,1.60
2023-04-13T01:54:51.249Z,1.73
2023-04-13T01:57:18.680Z,1.40
2023-04-13T01:59:45.885Z,1.80
2023-04-13T02:02:16.956Z,1.10
2023-04-13T02:04:44.241Z,1.65
2023-04-13T02:07:12.573Z,1.38
2023-04-13T02:09:39.689Z,1.23
2023-04-13T02:12:07.070Z,1.45
2023-04-13T02:14:34.159Z,1.60
2023-04-13T02:17:01.184Z,1.10
2023-04-13T02:19:28.986Z,1.38
2023-04-13T02:21:56.031Z,1.20
2023-04-13T02:24:23.113Z,1.15
2023-04-13T02:26:50.152Z,1.20
2023-04-13T02:29:17.391Z,1.25
2023-04-13T02:31:45.602Z,1.13
2023-04-13T02:34:12.800Z,1.20
2023-04-13T02:36:40.909Z,1.52
2023-04-13T02:39:08.613Z,1.00
2023-04-13T02:41:35.620Z,1.27
2023-04-13T02:44:03.476Z,1.30
2023-04-13T02:46:32.748Z,1.40
2023-04-13T02:49:00.408Z,1.20
2023-04-13T02:51:28.147Z,1.20
2023-04-13T02:53:57.721Z,1.27
2023-04-13T02:56:28.517Z,1.15
2023-04-13T02:58:55.743Z,1.15
2023-04-13T03:01:25.187Z,0.90
2023-04-13T03:03:52.376Z,0.97
2023-04-13T03:06:19.775Z,1.13
2023-04-13T03:08:48.077Z,1.00
2023-04-13T03:11:16.379Z,1.30
2023-04-13T03:13:43.901Z,1.00
2023-04-13T03:16:13.951Z,0.80
2023-04-13T03:18:41.034Z,1.40
2023-04-13T03:21:08.246Z,1.02
2023-04-13T03:23:35.330Z,0.98
2023-04-13T03:26:02.429Z,0.70
2023-04-13T03:28:29.933Z,1.10
2023-04-13T03:30:57.484Z,1.00
2023-04-13T03:33:24.583Z,0.88
2023-04-13T03:35:51.713Z,1.00
2023-04-13T03:38:18.810Z,0.77
2023-04-13T03:40:46.510Z,0.80
2023-04-13T03:43:13.708Z,1.30
2023-04-13T03:45:40.878Z,1.10
2023-04-13T03:48:07.996Z,1.00
2023-04-13T03:50:35.148Z,0.85
2023-04-13T03:53:02.516Z,0.77
2023-04-13T03:55:29.607Z,0.70
2023-04-13T03:57:56.877Z,0.88
2023-04-13T04:00:23.972Z,0.93
2023-04-13T04:02:51.193Z,0.88
2023-04-13T04:05:18.974Z,0.70
2023-04-13T04:07:46.167Z,0.73
2023-04-13T04:10:13.333Z,1.00
2023-04-13T04:12:40.697Z,0.88
2023-04-13T04:15:08.737Z,0.90
2023-04-13T04:17:38.013Z,0.77
2023-04-13T04:20:07.282Z,0.63
2023-04-13T04:22:36.728Z,0.75
2023-04-13T04:25:04.685Z,0.60
2023-04-13T04:27:38.078Z,0.68
2023-04-13T04:30:06.625Z,0.82
2023-04-13T04:32:34.338Z,0.82
2023-04-13T04:35:03.166Z,0.52
2023-04-13T04:37:37.822Z,0.60
2023-04-13T04:40:13.072Z,0.98
2023-04-13T04:42:40.229Z,1.10
2023-04-13T04:45:07.989Z,0.70
2023-04-13T04:47:42.169Z,0.63
2023-04-13T04:50:11.469Z,0.77
2023-04-13T04:52:39.557Z,1.30
2023-04-13T04:55:07.469Z,0.70
2023-04-13T04:57:34.756Z,0.60
2023-04-13T05:00:02.975Z,0.82
2023-04-13T05:02:30.232Z,0.77
2023-04-13T05:04:57.640Z,0.90
2023-04-13T05:07:24.846Z,0.95
2023-04-13T05:09:52.649Z,0.90
2023-04-13T05:12:19.943Z,0.93
2023-04-13T05:14:48.616Z,0.77
2023-04-13T05:17:18.891Z,0.98
2023-04-13T05:22:15.318Z,0.60
2023-04-13T05:24:42.412Z,0.80
2023-04-13T05:27:10.062Z,0.60
2023-04-13T05:29:37.671Z,1.00
2023-04-13T05:32:05.456Z,1.00
2023-04-13T05:34:33.918Z,0.98
2023-04-13T05:37:01.008Z,0.65
2023-04-13T05:39:28.463Z,1.13
2023-04-13T05:41:56.091Z,0.68
2023-04-13T05:44:24.333Z,0.77
2023-04-13T05:46:51.429Z,1.20
2023-04-13T05:49:18.552Z,0.90
2023-04-13T05:51:46.249Z,0.80
2023-04-13T05:54:14.192Z,0.88
2023-04-13T05:56:42.055Z,0.77
2023-04-13T05:59:09.536Z,1.40
2023-04-13T06:01:37.970Z,0.95
2023-04-13T06:04:06.192Z,1.08
2023-04-13T06:06:33.708Z,1.00
2023-04-13T06:09:02.393Z,1.00
2023-04-13T06:11:29.487Z,0.98
2023-04-13T06:13:58.700Z,1.63
2023-04-13T06:16:27.146Z,1.27
2023-04-13T06:18:54.247Z,1.50
2023-04-13T06:21:22.360Z,1.55
2023-04-13T06:23:51.274Z,1.30
2023-04-13T06:26:18.491Z,1.38
2023-04-13T06:28:45.655Z,1.40
2023-04-13T06:31:13.969Z,1.25
2023-04-13T06:33:41.761Z,1.30
2023-04-13T06:36:09.513Z,1.33
2023-04-13T06:38:36.635Z,1.73
2023-04-13T06:41:04.766Z,1.27
2023-04-13T06:43:32.080Z,1.38
2023-04-13T06:46:01.875Z,1.17
2023-04-13T06:48:30.872Z,1.42
2023-04-13T06:50:59.431Z,1.98
2023-04-13T06:53:26.651Z,1.35
2023-04-13T06:55:53.801Z,1.65
2023-04-13T06:58:23.498Z,1.90
2023-04-13T07:00:50.755Z,1.88
2023-04-13T07:03:18.049Z,2.15
2023-04-13T07:05:45.577Z,1.70
2023-04-13T07:08:13.209Z,2.00
2023-04-13T07:10:41.183Z,1.85
2023-04-13T07:13:08.390Z,1.65
2023-04-13T07:15:37.897Z,1.55
2023-04-13T07:18:05.294Z,1.50
2023-04-13T07:20:35.152Z,1.63
2023-04-13T07:23:02.564Z,2.00
2023-04-13T07:25:29.659Z,1.50
2023-04-13T07:27:57.403Z,2.03
2023-04-13T07:30:24.413Z,1.90
2023-04-13T07:32:52.056Z,2.40
2023-04-13T07:35:19.370Z,2.45
2023-04-13T07:37:47.019Z,1.58
2023-04-13T07:40:14.265Z,1.63
2023-04-13T07:42:41.480Z,2.00
2023-04-13T07:45:10.968Z,2.30
2023-04-13T07:47:38.093Z,1.80
2023-04-13T07:50:06.359Z,1.85
2023-04-13T07:52:33.523Z,1.95
2023-04-13T07:55:02.603Z,1.83
2023-04-13T07:57:29.738Z,2.20
2023-04-13T07:59:57.594Z,1.95
2023-04-13T08:02:25.761Z,1.75
2023-04-13T08:04:53.469Z,1.95
2023-04-13T08:07:23.136Z,1.65
2023-04-13T08:09:52.538Z,2.05
2023-04-13T08:12:20.052Z,1.92
2023-04-13T08:14:47.135Z,1.70
2023-04-13T08:17:14.298Z,2.08
2023-04-13T08:19:41.406Z,1.92
2023-04-13T08:22:10.940Z,2.38
2023-04-13T08:24:38.055Z,2.22
2023-04-13T08:27:07.568Z,1.77
2023-04-13T08:29:35.613Z,1.80
2023-04-13T08:32:02.829Z,2.10
2023-04-13T08:34:30.404Z,2.22
2023-04-13T08:36:58.004Z,1.65
2023-04-13T08:39:25.154Z,2.30
2023-04-13T08:41:53.101Z,2.00
2023-04-13T08:44:20.166Z,1.65
2023-04-13T08:46:47.622Z,1.77
2023-04-13T08:49:14.798Z,1.77
2023-04-13T08:51:47.362Z,1.85
2023-04-13T08:54:16.478Z,1.77
2023-04-13T08:56:47.256Z,2.67
2023-04-13T08:59:16.280Z,2.95
2023-04-13T09:01:49.467Z,1.83
2023-04-13T09:04:20.502Z,2.30
2023-04-13T09:06:51.242Z,2.40
2023-04-13T09:09:20.788Z,1.90
2023-04-13T09:11:50.834Z,2.17
2023-04-13T09:14:23.105Z,1.90
2023-04-13T09:16:50.901Z,4.60
2023-04-13T09:19:28.902Z,3.47
2023-04-13T09:21:56.420Z,2.95
2023-04-13T09:24:23.704Z,2.55
2023-04-13T09:26:51.119Z,2.40
2023-04-13T09:29:19.997Z,2.67
2023-04-13T09:31:47.878Z,2.60
2023-04-13T09:34:29.606Z,2.63
2023-04-13T09:37:00.121Z,2.50
2023-04-13T09:39:29.287Z,2.60
2023-04-13T09:41:58.319Z,2.83
2023-04-13T09:44:28.834Z,2.58
2023-04-13T09:47:04.145Z,3.10
2023-04-13T09:49:42.521Z,3.00
2023-04-13T09:52:23.243Z,2.15
2023-04-13T09:54:58.928Z,1.92
2023-04-13T09:57:28.702Z,2.55
2023-04-13T09:59:57.900Z,2.08
2023-04-13T10:02:26.099Z,2.50
2023-04-13T10:04:54.528Z,2.53
2023-04-13T10:07:26.852Z,2.92
2023-04-13T10:09:54.646Z,2.63
2023-04-13T10:12:24.979Z,2.67
2023-04-13T10:14:59.341Z,2.45
2023-04-13T10:17:44.010Z,2.80
2023-04-13T10:20:13.120Z,2.60
2023-04-13T10:22:43.503Z,2.50
2023-04-13T10:25:29.128Z,2.45
2023-04-13T10:28:00.842Z,2.25
2023-04-13T10:30:28.603Z,2.75
2023-04-13T10:33:07.216Z,2.63
2023-04-13T10:35:43.298Z,2.67
2023-04-13T10:38:11.682Z,1.80
2023-04-13T10:40:46.414Z,2.28
2023-04-13T10:43:24.443Z,1.90
2023-04-13T10:45:52.232Z,3.00
2023-04-13T10:48:22.755Z,2.50
2023-04-13T10:50:59.235Z,2.50
2023-04-13T10:53:30.665Z,2.10
2023-04-13T10:55:58.166Z,2.38
2023-04-13T10:58:27.071Z,2.00
2023-04-13T11:00:55.154Z,2.15
2023-04-13T11:03:28.485Z,2.17
2023-04-13T11:05:58.391Z,2.00
2023-04-13T11:08:28.261Z,2.10
2023-04-13T11:10:56.987Z,1.98
2023-04-13T11:13:29.900Z,2.33
2023-04-13T11:16:05.254Z,2.22
2023-04-13T11:18:32.839Z,2.22
2023-04-13T11:21:00.104Z,2.03
2023-04-13T11:23:27.881Z,2.60
2023-04-13T11:26:00.016Z,1.67
2023-04-13T11:28:43.876Z,1.73
2023-04-13T11:31:12.116Z,1.98
2023-04-13T11:33:40.658Z,2.55
2023-04-13T11:36:12.045Z,2.03
2023-04-13T11:38:41.787Z,1.95
2023-04-13T11:41:16.274Z,1.92
2023-04-13T11:43:48.967Z,2.20
2023-04-13T11:46:25.387Z,1.90
2023-04-13T11:48:53.461Z,2.10
2023-04-13T11:51:22.036Z,2.60
2023-04-13T11:53:51.447Z,2.30
2023-04-13T11:56:19.483Z,1.90
2023-04-13T11:58:49.947Z,2.08
2023-04-13T12:01:25.634Z,2.30
2023-04-13T12:04:13.842Z,1.80
2023-04-13T12:06:46.299Z,1.60
2023-04-13T12:09:17.257Z,1.67
2023-04-13T12:11:50.170Z,2.25
2023-04-13T12:19:27.794Z,2.10
2023-04-13T12:21:57.646Z,2.03
2023-04-13T12:24:37.762Z,2.33
2023-04-13T12:32:14.697Z,2.53
2023-04-13T12:34:43.952Z,2.00
2023-04-13T12:37:12.299Z,1.90
2023-04-13T12:39:39.527Z,1.80
2023-04-13T12:42:06.732Z,1.83
2023-04-13T12:44:34.709Z,2.13
2023-04-13T12:47:02.610Z,1.80
2023-04-13T12:49:30.309Z,1.95
2023-04-13T12:51:57.694Z,2.67
2023-04-13T12:54:25.190Z,2.20
2023-04-13T12:56:52.325Z,1.60
2023-04-13T12:59:22.096Z,1.88
2023-04-13T13:01:50.294Z,2.00
2023-04-13T13:04:18.134Z,2.25
2023-04-13T13:06:45.896Z,2.00
2023-04-13T13:09:13.002Z,2.10
2023-04-13T13:11:40.090Z,2.10
2023-04-13T13:14:09.943Z,2.20
2023-04-13T13:16:38.369Z,2.05
2023-04-13T13:19:05.949Z,1.98
2023-04-13T13:21:33.681Z,2.08
2023-04-13T13:24:00.801Z,1.92
2023-04-13T13:26:33.039Z,2.20
2023-04-13T13:29:02.658Z,1.70
2023-04-13T13:31:30.314Z,2.67
2023-04-13T13:33:57.367Z,2.20
2023-04-13T13:36:24.918Z,1.83
2023-04-13T13:38:51.988Z,1.98
2023-04-13T13:41:20.247Z,2.20
2023-04-13T13:43:47.388Z,1.70
2023-04-13T13:46:14.534Z,1.83
2023-04-13T13:48:42.183Z,1.80
2023-04-13T13:51:09.222Z,2.47
2023-04-13T13:53:36.388Z,1.80
2023-04-13T13:56:04.341Z,2.08
2023-04-13T13:58:31.468Z,2.40
2023-04-13T14:00:59.222Z,1.65
2023-04-13T14:03:27.361Z,2.15
2023-04-13T14:05:54.539Z,1.70
2023-04-13T14:08:21.638Z,1.95
2023-04-13T14:10:50.374Z,2.38
2023-04-13T14:13:17.683Z,2.08
2023-04-13T14:15:45.029Z,1.70
2023-04-13T14:18:13.357Z,1.60
2023-04-13T14:20:40.717Z,1.80
2023-04-13T14:23:09.716Z,1.70
2023-04-13T14:25:37.993Z,1.90
2023-04-13T14:28:05.172Z,2.55
2023-04-13T14:30:32.340Z,2.72
2023-04-13T14:32:59.491Z,2.00
2023-04-13T14:35:27.135Z,1.92
2023-04-13T14:37:54.673Z,2.20
2023-04-13T14:40:23.507Z,1.90
2023-04-13T14:42:53.067Z,1.95
2023-04-13T14:45:21.335Z,1.77
2023-04-13T14:47:48.740Z,2.40
2023-04-13T14:50:16.588Z,2.03
2023-04-13T14:52:45.164Z,2.20
2023-04-13T14:55:13.020Z,1.88
2023-04-13T14:57:40.684Z,1.65
2023-04-13T15:00:16.105Z,1.67
2023-04-13T15:02:43.393Z,2.15
2023-04-13T15:05:10.602Z,1.95
2023-04-13T15:07:38.238Z,2.22
2023-04-13T15:10:07.484Z,2.17
2023-04-13T15:12:35.260Z,2.07
2023-04-13T15:15:02.352Z,2.17
2023-04-13T15:17:30.954Z,1.80
2023-04-13T15:19:59.025Z,1.73
2023-04-13T15:22:26.200Z,1.95
2023-04-13T15:24:53.310Z,2.00
2023-04-13T15:27:20.545Z,2.03
2023-04-13T15:29:47.611Z,2.13
2023-04-13T15:32:16.076Z,2.33
2023-04-13T15:34:43.149Z,1.80
2023-04-13T15:37:10.295Z,1.98
2023-04-13T15:39:37.333Z,2.08
2023-04-13T15:42:04.474Z,1.70
2023-04-13T15:44:32.242Z,2.00
2023-04-13T15:47:01.055Z,2.65
2023-04-13T15:51:58.409Z,2.20
2023-04-13T15:54:25.448Z,2.05
2023-04-13T15:56:52.985Z,1.70
2023-04-13T15:59:20.068Z,2.13
2023-04-13T16:01:48.875Z,2.10
2023-04-13T16:04:16.489Z,1.98
2023-04-13T16:06:44.079Z,1.83
2023-04-13T16:09:11.260Z,2.03
2023-04-13T16:11:42.286Z,1.90
2023-04-13T16:14:09.601Z,1.90
2023-04-13T16:16:47.224Z,1.77
2023-04-13T16:19:18.736Z,2.17
2023-04-13T16:21:51.021Z,2.08
2023-04-13T16:24:20.195Z,3.05
2023-04-13T16:26:48.106Z,2.17
2023-04-13T16:29:15.124Z,2.47
2023-04-13T16:31:44.920Z,1.83
2023-04-13T16:36:45.389Z,1.88
2023-04-13T16:39:15.131Z,2.05
2023-04-13T16:41:43.174Z,1.92
2023-04-13T16:44:10.286Z,2.28
2023-04-13T16:46:37.407Z,2.40
2023-04-13T16:49:04.970Z,2.13
2023-04-13T16:51:32.346Z,1.88
2023-04-13T16:54:00.180Z,1.73
2023-04-13T16:56:30.599Z,1.90
2023-04-13T16:58:57.820Z,2.15
2023-04-13T17:01:29.083Z,1.88
2023-04-13T17:03:56.344Z,1.60
2023-04-13T17:06:23.630Z,1.63
2023-04-13T17:08:50.912Z,1.95
2023-04-13T17:11:18.345Z,1.70
2023-04-13T17:13:45.422Z,1.75
2023-04-13T17:16:12.576Z,2.20
2023-04-13T17:18:39.742Z,1.80
2023-04-13T17:21:07.645Z,2.00
2023-04-13T17:23:36.124Z,1.90
2023-04-13T17:26:03.794Z,1.48
2023-04-13T17:28:30.980Z,1.48
2023-04-13T17:30:58.048Z,1.55
2023-04-13T17:33:28.103Z,1.85
2023-04-13T17:35:56.284Z,1.20
2023-04-13T17:38:23.604Z,2.00
2023-04-13T17:40:51.182Z,1.90
2023-04-13T17:43:18.471Z,1.80
2023-04-13T17:45:45.747Z,1.50
2023-04-13T17:48:13.222Z,1.70
2023-04-13T17:50:40.308Z,2.13
2023-04-13T17:53:07.466Z,1.40
2023-04-13T17:55:38.636Z,1.50
2023-04-13T17:58:06.170Z,1.80
2023-04-13T18:00:33.249Z,1.65
2023-04-13T18:03:02.394Z,1.48
2023-04-13T18:05:31.072Z,1.23
2023-04-13T18:07:58.633Z,1.70
2023-04-13T18:10:26.600Z,1.98
2023-04-13T18:12:53.690Z,1.45
2023-04-13T18:15:20.843Z,1.48
2023-04-13T18:17:47.996Z,1.50
2023-04-13T18:20:15.133Z,1.50
2023-04-13T18:22:42.837Z,1.70
2023-04-13T18:25:10.056Z,1.38
2023-04-13T18:27:37.152Z,1.60
2023-04-13T18:30:04.494Z,1.10
2023-04-13T18:32:31.592Z,1.77
2023-04-13T18:34:59.234Z,1.17
2023-04-13T18:37:26.250Z,2.00
2023-04-13T18:39:54.634Z,1.20
2023-04-13T18:42:21.807Z,1.38
2023-04-13T18:44:48.927Z,1.40
2023-04-13T18:47:20.738Z,1.40
2023-04-13T18:49:48.257Z,1.30
2023-04-13T18:52:15.698Z,1.63
2023-04-13T18:54:42.902Z,1.80
2023-04-13T18:57:10.776Z,1.05
2023-04-13T18:59:39.181Z,1.35
2023-04-13T19:02:06.535Z,0.95
2023-04-13T19:04:35.357Z,1.40
2023-04-13T19:07:02.578Z,1.10
2023-04-13T19:09:31.372Z,1.23
2023-04-13T19:12:02.371Z,1.05
2023-04-13T19:14:30.126Z,1.38
2023-04-13T19:16:57.957Z,1.00
2023-04-13T19:19:25.300Z,0.90
2023-04-13T19:21:54.194Z,1.00
2023-04-13T19:24:22.188Z,1.10
2023-04-13T19:26:49.705Z,0.82
2023-04-13T19:29:17.571Z,1.00
2023-04-13T19:31:45.888Z,0.80
2023-04-13T19:34:13.518Z,1.23
2023-04-13T19:36:43.861Z,1.60
2023-04-13T19:41:39.075Z,1.15
2023-04-13T19:44:08.030Z,1.00
2023-04-13T19:46:35.618Z,0.90
2023-04-13T19:49:03.043Z,1.00
2023-04-13T19:51:32.362Z,1.10
2023-04-13T19:54:02.091Z,1.17
2023-04-13T19:56:30.867Z,0.80
2023-04-13T19:58:58.553Z,1.05
2023-04-13T20:01:26.071Z,0.95
2023-04-13T20:03:53.364Z,1.00
2023-04-13T20:06:20.633Z,1.10
2023-04-13T20:08:48.051Z,0.88
2023-04-13T20:11:15.152Z,1.00
2023-04-13T20:13:42.277Z,1.08
2023-04-13T20:16:10.921Z,1.20
2023-04-13T20:18:38.562Z,1.35
2023-04-13T20:21:06.539Z,0.98
2023-04-13T20:23:34.644Z,0.80
2023-04-13T20:26:01.741Z,0.70
2023-04-13T20:28:29.638Z,0.70
2023-04-13T20:30:56.709Z,0.88
2023-04-13T20:33:23.767Z,1.00
2023-04-13T20:35:52.333Z,1.20
2023-04-13T20:38:19.511Z,0.80
2023-04-13T20:40:48.302Z,0.98
2023-04-13T20:43:20.730Z,0.90
2023-04-13T20:45:47.823Z,0.63
2023-04-13T20:50:47.859Z,0.90
2023-04-13T20:55:43.770Z,1.00
2023-04-13T20:58:10.970Z,0.70
2023-04-13T21:00:38.568Z,0.90
2023-04-13T21:03:09.352Z,0.80
2023-04-13T21:05:36.780Z,0.75
2023-04-13T21:08:04.128Z,0.95
2023-04-13T21:10:31.332Z,0.82
2023-04-13T21:12:58.372Z,0.93
2023-04-13T21:15:25.861Z,1.00
2023-04-13T21:17:53.051Z,0.70
2023-04-13T21:20:20.266Z,0.93
2023-04-13T21:22:47.348Z,0.88
2023-04-13T21:25:14.399Z,0.70
2023-04-13T21:27:41.877Z,0.80
2023-04-13T21:30:12.314Z,0.60
2023-04-13T21:32:39.468Z,0.50
2023-04-13T21:35:07.259Z,0.70
2023-04-13T21:37:34.347Z,0.90
2023-04-13T21:40:02.369Z,0.47
2023-04-13T21:42:29.451Z,0.77
2023-04-13T21:44:59.864Z,0.90
2023-04-13T21:49:54.176Z,0.90
2023-04-13T21:52:21.575Z,1.00
2023-04-13T21:54:51.016Z,0.75
2023-04-13T21:57:18.686Z,0.80
2023-04-13T21:59:45.668Z,0.88
2023-04-13T22:02:12.791Z,0.60
2023-04-13T22:04:40.344Z,0.60
2023-04-13T22:07:07.628Z,1.02
2023-04-13T22:09:34.719Z,0.90
2023-04-13T22:12:01.795Z,0.82
2023-04-13T22:14:28.891Z,0.88
2023-04-13T22:16:56.314Z,0.68
2023-04-13T22:19:23.354Z,0.60
2023-04-13T22:21:50.433Z,0.68
2023-04-13T22:24:17.446Z,0.60
2023-04-13T22:26:44.527Z,0.63
2023-04-13T22:29:13.481Z,0.88
2023-04-13T22:31:40.576Z,0.85
2023-04-13T22:34:07.649Z,0.88
2023-04-13T22:36:34.779Z,0.85
2023-04-13T22:39:02.225Z,0.60
2023-04-13T22:41:30.505Z,0.57
2023-04-13T22:43:57.578Z,0.60
2023-04-13T22:46:24.744Z,0.60
2023-04-13T22:48:51.816Z,0.90
2023-04-13T22:51:18.879Z,0.60
2023-04-13T22:53:48.738Z,0.60
2023-04-13T22:56:16.026Z,0.73
2023-04-13T22:58:43.048Z,0.70
2023-04-13T23:01:10.101Z,0.77
2023-04-13T23:03:37.269Z,0.60
2023-04-13T23:06:05.885Z,0.77
2023-04-13T23:08:32.987Z,0.57
2023-04-13T23:11:08.967Z,0.75
2023-04-13T23:13:36.934Z,0.70
2023-04-13T23:16:06.020Z,0.77
2023-04-13T23:18:33.233Z,0.80
2023-04-13T23:21:08.349Z,0.60
2023-04-13T23:23:35.922Z,0.60
2023-04-13T23:26:03.039Z,0.57
2023-04-13T23:28:30.079Z,0.60
2023-04-13T23:31:05.587Z,0.63
2023-04-13T23:33:33.936Z,0.70
2023-04-13T23:36:01.869Z,0.68
2023-04-13T23:38:29.558Z,0.70
2023-04-13T23:40:57.257Z,0.50
2023-04-13T23:43:24.840Z,0.60
2023-04-13T23:45:52.870Z,0.70
2023-04-13T23:48:22.096Z,0.68
2023-04-13T23:50:49.645Z,0.70
2023-04-13T23:53:17.789Z,0.70
2023-04-13T23:55:44.832Z,0.50
2023-04-13T23:58:12.146Z,0.70
